createdAt,value
2022-10-31T00:00:11.420Z,1.45
2022-10-31T00:03:21.729Z,1.55
2022-10-31T00:06:33.330Z,1.77
2022-10-31T00:09:38.141Z,1.92
2022-10-31T00:12:43.332Z,1.83
2022-10-31T00:15:46.766Z,2.20
2022-10-31T00:18:55.059Z,1.50
2022-10-31T00:22:01.054Z,1.50
2022-10-31T00:25:04.645Z,2.45
2022-10-31T00:28:09.070Z,2.22
2022-10-31T00:31:14.679Z,1.63
2022-10-31T00:34:18.488Z,2.15
2022-10-31T00:37:22.714Z,1.77
2022-10-31T00:40:26.543Z,1.77
2022-10-31T00:43:30.612Z,1.60
2022-10-31T00:46:34.531Z,2.60
2022-10-31T00:49:39.014Z,2.03
2022-10-31T00:52:42.951Z,2.67
2022-10-31T00:55:47.228Z,2.30
2022-10-31T00:58:51.585Z,1.42
2022-10-31T01:01:57.105Z,1.83
2022-10-31T01:05:00.732Z,2.22
2022-10-31T01:08:04.643Z,2.13
2022-10-31T01:11:18.555Z,1.90
2022-10-31T01:14:22.487Z,1.65
2022-10-31T01:17:26.988Z,1.42
2022-10-31T01:20:30.883Z,1.80
2022-10-31T01:23:35.935Z,1.52
2022-10-31T01:27:23.589Z,1.83
2022-10-31T01:33:22.472Z,2.08
2022-10-31T01:36:36.493Z,1.20
2022-10-31T01:39:40.477Z,1.60
2022-10-31T01:42:44.614Z,2.10
2022-10-31T01:45:55.429Z,1.70
2022-10-31T01:49:02.283Z,1.85
2022-10-31T01:52:12.446Z,1.67
2022-10-31T01:55:25.230Z,2.00
2022-10-31T01:58:34.058Z,1.80
2022-10-31T02:01:39.660Z,1.80
2022-10-31T02:04:45.176Z,2.17
2022-10-31T02:08:00.463Z,2.30
2022-10-31T02:11:05.878Z,3.78
2022-10-31T02:14:10.296Z,3.05
2022-10-31T02:17:15.039Z,2.20
2022-10-31T02:20:23.032Z,2.80
2022-10-31T02:23:43.002Z,2.00
2022-10-31T02:27:13.803Z,3.03
2022-10-31T02:30:25.516Z,2.55
2022-10-31T02:33:47.055Z,2.50
2022-10-31T02:37:10.210Z,2.35
2022-10-31T02:40:31.391Z,2.00
2022-10-31T02:44:18.677Z,1.60
2022-10-31T02:47:30.458Z,1.65
2022-10-31T02:50:39.394Z,2.42
2022-10-31T02:53:43.507Z,1.50
2022-10-31T02:56:48.723Z,1.40
2022-10-31T02:59:58.958Z,1.30
2022-10-31T03:03:21.072Z,2.03
2022-10-31T03:06:35.498Z,1.77
2022-10-31T03:10:04.298Z,1.70
2022-10-31T03:13:12.397Z,1.40
2022-10-31T03:16:46.474Z,1.70
2022-10-31T03:19:54.847Z,1.50
2022-10-31T03:23:03.193Z,1.40
2022-10-31T03:26:09.606Z,1.80
2022-10-31T03:29:17.088Z,1.70
2022-10-31T03:32:29.655Z,1.60
2022-10-31T03:35:35.287Z,2.20
2022-10-31T03:38:42.977Z,1.17
2022-10-31T03:41:51.706Z,1.42
2022-10-31T03:45:16.752Z,2.17
2022-10-31T03:48:22.028Z,1.33
2022-10-31T03:51:59.278Z,1.33
2022-10-31T03:55:22.274Z,1.20
2022-10-31T03:58:45.119Z,1.40
2022-10-31T04:01:54.469Z,2.00
2022-10-31T04:04:59.068Z,1.77
2022-10-31T04:08:06.621Z,1.88
2022-10-31T04:11:14.077Z,1.80
2022-10-31T04:14:19.072Z,1.58
2022-10-31T04:17:27.461Z,1.60
2022-10-31T04:20:41.598Z,1.13
2022-10-31T04:23:47.121Z,1.30
2022-10-31T04:26:55.600Z,1.27
2022-10-31T04:30:01.266Z,1.23
2022-10-31T04:33:08.075Z,1.08
2022-10-31T04:36:12.360Z,1.13
2022-10-31T04:39:16.630Z,1.35
2022-10-31T04:42:49.107Z,1.65
2022-10-31T04:45:53.506Z,1.05
2022-10-31T04:48:57.926Z,1.00
2022-10-31T04:52:02.176Z,1.40
2022-10-31T04:55:06.032Z,1.20
2022-10-31T04:58:39.430Z,1.30
2022-10-31T05:01:45.656Z,1.38
2022-10-31T05:04:50.141Z,1.58
2022-10-31T05:07:56.035Z,1.10
2022-10-31T05:11:04.671Z,1.40
2022-10-31T05:14:08.849Z,1.30
2022-10-31T05:17:50.750Z,1.40
2022-10-31T05:21:06.541Z,1.77
2022-10-31T05:24:12.552Z,1.40
2022-10-31T05:27:20.800Z,1.17
2022-10-31T05:30:32.073Z,1.70
2022-10-31T05:33:35.544Z,1.40
2022-10-31T05:37:01.522Z,1.50
2022-10-31T05:40:08.408Z,1.85
2022-10-31T05:43:12.093Z,1.70
2022-10-31T05:46:18.552Z,1.50
2022-10-31T05:49:40.772Z,1.30
2022-10-31T05:53:06.921Z,1.45
2022-10-31T05:56:13.296Z,1.92
2022-10-31T05:59:17.821Z,1.40
2022-10-31T06:02:22.657Z,1.58
2022-10-31T06:05:54.174Z,1.50
2022-10-31T06:09:02.271Z,1.50
2022-10-31T06:15:32.265Z,0.93
2022-10-31T06:18:36.132Z,1.33
2022-10-31T06:21:39.952Z,1.40
2022-10-31T06:24:44.227Z,1.65
2022-10-31T06:27:59.489Z,1.90
2022-10-31T06:31:12.140Z,2.30
2022-10-31T06:34:15.976Z,1.77
2022-10-31T06:37:18.956Z,1.55
2022-10-31T06:40:25.810Z,1.17
2022-10-31T06:43:49.231Z,1.60
2022-10-31T06:47:17.920Z,2.28
2022-10-31T06:50:39.915Z,1.77
2022-10-31T06:53:46.036Z,1.27
2022-10-31T06:56:52.515Z,2.05
2022-10-31T06:59:56.616Z,1.90
2022-10-31T07:03:17.032Z,1.10
2022-10-31T07:06:22.681Z,1.27
2022-10-31T07:09:25.782Z,1.10
2022-10-31T07:12:30.616Z,0.90
2022-10-31T07:15:37.737Z,2.00
2022-10-31T07:18:42.459Z,2.25
2022-10-31T07:21:48.489Z,1.95
2022-10-31T07:24:52.567Z,1.77
2022-10-31T07:28:14.032Z,1.05
2022-10-31T07:31:17.223Z,1.50
2022-10-31T07:34:20.324Z,1.83
2022-10-31T07:37:43.796Z,2.22
2022-10-31T07:40:53.414Z,1.40
2022-10-31T07:43:56.493Z,1.17
2022-10-31T07:47:17.845Z,1.35
2022-10-31T07:50:41.961Z,1.10
2022-10-31T07:54:04.090Z,1.95
2022-10-31T07:57:08.880Z,1.90
2022-10-31T08:00:14.499Z,2.22
2022-10-31T08:03:20.518Z,1.90
2022-10-31T08:06:41.646Z,2.20
2022-10-31T08:09:57.170Z,1.92
2022-10-31T08:13:13.254Z,2.20
2022-10-31T08:16:20.525Z,1.75
2022-10-31T08:19:31.413Z,2.10
2022-10-31T08:22:37.590Z,2.15
2022-10-31T08:25:44.224Z,1.60
2022-10-31T08:28:48.767Z,1.80
2022-10-31T08:31:52.089Z,2.50
2022-10-31T08:35:13.997Z,2.42
2022-10-31T08:38:35.818Z,1.77
2022-10-31T08:41:38.866Z,1.95
2022-10-31T08:44:47.819Z,2.90
2022-10-31T08:47:51.184Z,3.25
2022-10-31T08:51:01.794Z,3.17
2022-10-31T08:54:06.153Z,4.60
2022-10-31T08:57:11.841Z,6.07
2022-10-31T09:03:38.519Z,2.97
2022-10-31T09:06:50.386Z,2.00
2022-10-31T09:10:05.361Z,2.10
2022-10-31T09:13:30.119Z,2.80
2022-10-31T09:16:53.164Z,1.80
2022-10-31T09:20:01.155Z,1.75
2022-10-31T09:23:13.988Z,2.17
2022-10-31T09:26:18.137Z,1.70
2022-10-31T09:29:40.821Z,1.40
2022-10-31T09:32:47.617Z,3.15
2022-10-31T09:35:51.947Z,3.55
2022-10-31T09:38:56.394Z,6.25
2022-10-31T09:42:37.908Z,7.03
2022-10-31T09:46:11.823Z,7.63
2022-10-31T09:49:43.075Z,5.85
2022-10-31T09:53:02.722Z,7.90
2022-10-31T09:56:17.103Z,6.90
2022-10-31T09:59:28.506Z,6.68
2022-10-31T10:02:39.314Z,6.05
2022-10-31T10:05:54.118Z,4.80
2022-10-31T10:09:11.867Z,4.53
2022-10-31T10:13:05.001Z,4.72
2022-10-31T10:16:35.088Z,5.35
2022-10-31T10:23:25.184Z,4.35
2022-10-31T10:26:59.756Z,3.88
2022-10-31T10:30:23.940Z,3.63
2022-10-31T10:33:32.193Z,4.18
2022-10-31T10:36:36.576Z,3.92
2022-10-31T10:39:47.060Z,3.38
2022-10-31T10:43:20.644Z,5.47
2022-10-31T10:47:00.735Z,4.75
2022-10-31T10:50:26.322Z,3.92
2022-10-31T10:53:40.488Z,3.88
2022-10-31T10:57:39.460Z,4.43
2022-10-31T11:00:51.391Z,5.28
2022-10-31T11:03:56.523Z,4.20
2022-10-31T11:07:14.262Z,3.67
2022-10-31T11:10:18.889Z,3.03
2022-10-31T11:13:25.503Z,3.50
2022-10-31T11:16:41.861Z,3.97
2022-10-31T11:19:45.512Z,3.37
2022-10-31T11:22:50.429Z,4.00
2022-10-31T11:26:00.154Z,3.78
2022-10-31T11:29:07.370Z,2.10
2022-10-31T11:32:23.034Z,3.63
2022-10-31T11:35:27.973Z,3.75
2022-10-31T11:38:41.510Z,2.67
2022-10-31T11:41:46.141Z,2.80
2022-10-31T11:44:49.613Z,2.20
2022-10-31T11:47:59.881Z,2.47
2022-10-31T11:51:04.732Z,2.35
2022-10-31T11:54:22.232Z,2.10
2022-10-31T11:57:44.286Z,2.58
2022-10-31T12:00:52.869Z,2.65
2022-10-31T12:04:05.375Z,1.10
2022-10-31T12:07:09.813Z,1.85
2022-10-31T12:10:14.591Z,1.70
2022-10-31T12:13:53.949Z,1.85
2022-10-31T12:17:17.364Z,1.77
2022-10-31T12:20:46.990Z,1.90
2022-10-31T12:24:11.069Z,1.33
2022-10-31T12:27:19.878Z,1.60
2022-10-31T12:30:29.424Z,2.30
2022-10-31T12:33:57.803Z,2.75
2022-10-31T12:37:16.851Z,5.50
2022-10-31T12:41:02.290Z,3.30
2022-10-31T12:44:39.283Z,1.88
2022-10-31T12:47:57.930Z,1.50
2022-10-31T12:51:15.547Z,1.48
2022-10-31T12:57:43.396Z,2.35
2022-10-31T13:00:49.874Z,1.63
2022-10-31T13:04:20.544Z,1.83
2022-10-31T13:08:04.832Z,2.50
2022-10-31T13:11:20.414Z,3.17
2022-10-31T13:14:40.934Z,3.58
2022-10-31T13:17:49.688Z,3.38
2022-10-31T13:20:55.941Z,3.08
2022-10-31T13:24:02.941Z,3.05
2022-10-31T13:27:16.588Z,3.30
2022-10-31T13:30:25.432Z,2.17
2022-10-31T13:33:36.282Z,2.13
2022-10-31T13:36:53.591Z,2.20
2022-10-31T13:40:16.649Z,1.92
2022-10-31T13:43:43.572Z,1.92
2022-10-31T13:46:47.576Z,2.10
2022-10-31T13:49:50.755Z,2.53
2022-10-31T13:53:25.447Z,1.92
2022-10-31T13:56:32.666Z,2.40
2022-10-31T13:59:39.195Z,3.60
2022-10-31T14:02:50.045Z,2.83
2022-10-31T14:05:57.248Z,2.50
2022-10-31T14:09:01.045Z,2.05
2022-10-31T14:12:12.827Z,2.25
2022-10-31T14:15:28.322Z,2.22
2022-10-31T14:18:35.004Z,2.17
2022-10-31T14:21:46.922Z,1.95
2022-10-31T14:24:50.058Z,2.50
2022-10-31T14:27:55.874Z,2.58
2022-10-31T14:31:01.367Z,2.35
2022-10-31T14:34:32.496Z,2.92
2022-10-31T14:37:42.973Z,1.85
2022-10-31T14:41:17.606Z,1.73
2022-10-31T14:44:38.313Z,1.48
2022-10-31T14:48:16.119Z,1.20
2022-10-31T14:51:29.979Z,1.40
2022-10-31T14:54:39.647Z,1.63
2022-10-31T14:57:52.615Z,1.30
2022-10-31T15:00:59.269Z,1.80
2022-10-31T15:04:25.778Z,2.22
2022-10-31T15:07:32.423Z,2.27
2022-10-31T15:10:49.317Z,4.57
2022-10-31T15:14:16.550Z,1.60
2022-10-31T15:17:30.774Z,3.45
2022-10-31T15:20:46.341Z,2.78
2022-10-31T15:23:51.250Z,4.55
2022-10-31T15:26:59.687Z,3.42
2022-10-31T15:30:23.307Z,4.15
2022-10-31T15:33:48.359Z,4.53
2022-10-31T15:36:53.635Z,3.97
2022-10-31T15:40:09.094Z,3.30
2022-10-31T15:43:22.120Z,4.38
2022-10-31T15:46:32.891Z,3.53
2022-10-31T15:49:42.916Z,2.97
2022-10-31T15:52:52.841Z,3.28
2022-10-31T15:56:03.143Z,3.88
2022-10-31T15:59:24.108Z,2.10
2022-10-31T16:02:32.199Z,1.52
2022-10-31T16:05:52.808Z,2.00
2022-10-31T16:08:58.323Z,1.65
2022-10-31T16:12:02.562Z,1.08
2022-10-31T16:15:08.526Z,1.75
2022-10-31T16:18:13.859Z,1.20
2022-10-31T16:21:17.431Z,1.20
2022-10-31T16:24:31.492Z,0.77
2022-10-31T16:27:37.881Z,1.27
2022-10-31T16:30:48.474Z,1.85
2022-10-31T16:34:27.087Z,1.40
2022-10-31T16:37:30.805Z,0.88
2022-10-31T16:40:34.447Z,1.30
2022-10-31T16:43:38.793Z,1.80
2022-10-31T16:46:42.102Z,1.00
2022-10-31T16:49:49.616Z,1.17
2022-10-31T16:53:12.442Z,1.70
2022-10-31T16:56:24.655Z,1.30
2022-10-31T16:59:29.713Z,1.30
2022-10-31T17:02:34.452Z,1.15
2022-10-31T17:05:39.562Z,1.35
2022-10-31T17:08:43.504Z,1.20
2022-10-31T17:11:51.674Z,1.20
2022-10-31T17:14:55.611Z,1.27
2022-10-31T17:18:00.638Z,1.20
2022-10-31T17:21:06.927Z,1.40
2022-10-31T17:24:15.186Z,1.55
2022-10-31T17:27:19.695Z,1.30
2022-10-31T17:30:24.776Z,0.90
2022-10-31T17:33:28.931Z,1.60
2022-10-31T17:36:33.460Z,1.80
2022-10-31T17:39:37.185Z,1.60
2022-10-31T17:42:41.378Z,1.80
2022-10-31T17:45:45.259Z,1.90
2022-10-31T17:48:49.129Z,2.22
2022-10-31T17:51:52.629Z,2.10
2022-10-31T17:54:59.795Z,1.88
2022-10-31T17:58:04.347Z,1.98
2022-10-31T18:01:16.525Z,2.45
2022-10-31T18:04:20.415Z,2.33
2022-10-31T18:07:24.244Z,1.50
2022-10-31T18:10:27.728Z,2.05
2022-10-31T18:13:32.155Z,1.60
2022-10-31T18:19:41.017Z,1.50
2022-10-31T18:22:44.833Z,1.30
2022-10-31T18:25:49.353Z,1.27
2022-10-31T18:28:53.275Z,1.00
2022-10-31T18:31:58.302Z,1.20
2022-10-31T18:35:02.553Z,1.40
2022-10-31T18:38:08.104Z,2.08
2022-10-31T18:41:13.953Z,1.23
2022-10-31T18:44:18.396Z,1.67
2022-10-31T18:47:22.641Z,1.95
2022-10-31T18:50:27.285Z,1.58
2022-10-31T18:53:31.539Z,1.88
2022-10-31T18:56:35.297Z,1.40
2022-10-31T18:59:39.839Z,1.02
2022-10-31T19:02:43.546Z,1.40
2022-10-31T19:05:48.341Z,1.48
2022-10-31T19:08:58.771Z,1.60
2022-10-31T19:12:02.693Z,1.70
2022-10-31T19:15:07.119Z,1.60
2022-10-31T19:18:11.328Z,1.60
2022-10-31T19:21:19.305Z,1.65
2022-10-31T19:24:23.525Z,1.55
2022-10-31T19:27:28.765Z,1.65
2022-10-31T19:30:32.920Z,2.72
2022-10-31T19:33:36.684Z,1.42
2022-10-31T19:36:40.901Z,2.13
2022-10-31T19:39:44.514Z,2.30
2022-10-31T19:42:48.326Z,2.22
2022-10-31T19:45:59.622Z,3.13
2022-10-31T19:49:04.092Z,2.03
2022-10-31T19:52:08.030Z,2.40
2022-10-31T19:55:12.653Z,2.10
2022-10-31T19:58:16.174Z,2.20
2022-10-31T20:01:24.074Z,1.45
2022-10-31T20:04:27.884Z,2.47
2022-10-31T20:07:31.569Z,2.10
2022-10-31T20:10:35.116Z,2.10
2022-10-31T20:13:38.523Z,1.58
2022-10-31T20:16:43.206Z,2.90
2022-10-31T20:19:47.024Z,4.20
2022-10-31T20:22:51.451Z,2.10
2022-10-31T20:25:57.323Z,2.17
2022-10-31T20:29:02.647Z,2.53
2022-10-31T20:32:06.573Z,1.67
2022-10-31T20:35:10.888Z,1.95
2022-10-31T20:38:14.379Z,2.35
2022-10-31T20:41:18.493Z,1.80
2022-10-31T20:44:22.275Z,1.90
2022-10-31T20:47:26.409Z,1.52
2022-10-31T20:50:30.093Z,1.73
2022-10-31T20:53:35.171Z,1.75
2022-10-31T20:56:38.455Z,1.50
2022-10-31T20:59:41.938Z,1.30
2022-10-31T21:02:45.188Z,1.20
2022-10-31T21:06:00.485Z,2.00
2022-10-31T21:09:04.260Z,1.52
2022-10-31T21:12:08.386Z,2.08
2022-10-31T21:15:14.361Z,2.45
2022-10-31T21:18:18.190Z,2.95
2022-10-31T21:21:34.273Z,2.63
2022-10-31T21:24:38.507Z,3.35
2022-10-31T21:27:41.717Z,3.15
2022-10-31T21:30:48.950Z,2.72
2022-10-31T21:33:52.847Z,2.58
2022-10-31T21:36:57.053Z,2.13
2022-10-31T21:40:01.301Z,2.13
2022-10-31T21:43:05.049Z,1.88
2022-10-31T21:46:17.414Z,2.10
2022-10-31T21:49:21.175Z,2.35
2022-10-31T21:52:25.143Z,2.78
2022-10-31T21:55:29.473Z,2.28
2022-10-31T21:58:34.873Z,2.80
2022-10-31T22:01:42.304Z,2.30
2022-10-31T22:04:46.216Z,2.38
2022-10-31T22:07:50.138Z,2.10
2022-10-31T22:10:53.444Z,2.08
2022-10-31T22:13:57.697Z,1.85
2022-10-31T22:17:00.757Z,2.20
2022-10-31T22:20:04.791Z,2.10
2022-10-31T22:23:10.123Z,2.80
2022-10-31T22:26:15.558Z,2.50
2022-10-31T22:29:21.183Z,2.20
2022-10-31T22:32:24.469Z,1.95
2022-10-31T22:35:28.689Z,2.10
2022-10-31T22:38:40.588Z,2.72
2022-10-31T22:41:52.126Z,2.90
2022-10-31T22:44:57.193Z,3.25
2022-10-31T22:48:01.593Z,7.47
2022-10-31T22:51:08.736Z,4.82
2022-10-31T22:57:44.245Z,3.97
2022-10-31T23:00:49.124Z,5.50
2022-10-31T23:03:55.332Z,4.28
2022-10-31T23:06:59.884Z,3.72
2022-10-31T23:10:03.779Z,3.10
2022-10-31T23:13:32.973Z,2.40
2022-10-31T23:16:59.205Z,2.72
2022-10-31T23:20:14.564Z,2.10
2022-10-31T23:23:28.119Z,2.83
2022-10-31T23:26:58.762Z,2.67
2022-10-31T23:30:14.560Z,2.10
2022-10-31T23:33:31.554Z,2.15
2022-10-31T23:36:45.448Z,2.30
2022-10-31T23:40:00.596Z,3.00
2022-10-31T23:43:13.623Z,3.55
2022-10-31T23:46:25.823Z,4.20
2022-10-31T23:49:38.852Z,4.15
2022-10-31T23:52:58.630Z,3.90
2022-10-31T23:56:12.176Z,4.10
2022-10-31T23:59:29.168Z,4.43
